TimeCST,TemperatureF,Dew PointF,Humidity,Sea Level PressureIn,VisibilityMPH,Wind Direction,Wind SpeedMPH,Gust SpeedMPH,PrecipitationIn,Events,Conditions,WindDirDegrees,DateUTC
12:54 AM,48.0,39.9,74,30.08,10.0,SSE,10.4,-,N/A,,Clear,160,2011-11-06 05:54:00
1:54 AM,48.9,42.1,77,30.08,10.0,South,10.4,-,N/A,,Clear,170,2011-11-06 06:54:00
1:54 AM,48.9,42.1,77,30.08,10.0,SSE,12.7,-,N/A,,Clear,160,2011-11-06 07:54:00
2:54 AM,50.0,43.0,77,30.08,10.0,South,12.7,-,N/A,,Clear,170,2011-11-06 08:54:00
3:54 AM,50.0,44.1,80,30.09,10.0,South,12.7,-,N/A,,Clear,180,2011-11-06 09:54:00
4:54 AM,50.0,44.1,80,30.09,10.0,South,15.0,23.0,N/A,,Clear,170,2011-11-06 10:54:00
5:54 AM,50.0,45.0,83,30.09,10.0,South,17.3,25.3,N/A,,Clear,170,2011-11-06 11:54:00
6:54 AM,50.0,44.1,80,30.10,9.0,South,16.1,-,N/A,,Clear,180,2011-11-06 12:54:00
7:54 AM,52.0,44.1,74,30.11,10.0,South,23.0,31.1,N/A,,Clear,180,2011-11-06 13:54:00
8:54 AM,54.0,43.0,66,30.12,10.0,South,18.4,36.8,N/A,,Overcast,180,2011-11-06 14:54:00
9:54 AM,55.4,42.8,63,30.12,10.0,South,19.6,28.8,N/A,,Overcast,190,2011-11-06 15:54:00
10:54 AM,55.9,43.0,62,30.11,10.0,South,20.7,32.2,N/A,,Overcast,190,2011-11-06 16:54:00
11:54 AM,55.9,43.0,62,30.10,10.0,South,23.0,29.9,N/A,,Overcast,190,2011-11-06 17:54:00
12:54 PM,-9999,-9999,N/A,30.08,10.0,South,16.1,31.1,N/A,,Overcast,190,2011-11-06 18:54:00
1:54 PM,-9999,-9999,N/A,30.08,10.0,South,21.9,32.2,N/A,,Overcast,190,2011-11-06 19:54:00
2:54 PM,-9999,-9999,N/A,30.08,10.0,South,19.6,24.2,N/A,,Overcast,190,2011-11-06 20:54:00
3:54 PM,-9999,-9999,N/A,30.09,10.0,South,18.4,25.3,N/A,,Overcast,190,2011-11-06 21:54:00
4:54 PM,57.9,43.0,58,30.11,10.0,South,18.4,25.3,N/A,,Overcast,190,2011-11-06 22:54:00
5:54 PM,57.0,43.0,59,30.14,10.0,South,12.7,-,N/A,,Overcast,190,2011-11-06 23:54:00
6:54 PM,57.0,43.0,59,30.14,10.0,South,12.7,-,N/A,,Overcast,190,2011-11-07 00:54:00
7:54 PM,57.0,43.0,59,30.14,10.0,South,16.1,-,N/A,,Overcast,190,2011-11-07 01:54:00
8:54 PM,57.0,43.0,59,30.14,10.0,South,16.1,-,N/A,,Overcast,190,2011-11-07 02:54:00
9:54 PM,57.0,43.0,59,30.16,10.0,South,15.0,23.0,N/A,,Overcast,190,2011-11-07 03:54:00
10:54 PM,57.0,44.1,62,30.16,10.0,South,12.7,-,N/A,,Overcast,190,2011-11-07 04:54:00